Portada
METAR-TAF:

METAR-TAF

Aeropuertos :

Aeropuerto de Nápoles-Capodichino

Nápoles, Italia

latitud: 40-51N, longitud: 014-18E, altitud: 88 m

Observación

El informe se hizo hace 33 minutos, a las 08:50 UTC
Viento 10 kt del noreste
Temperatura 13°C
Humedad 44%
Presión 1021 hPa
Visibilidad 10 km o más
sin nubes por debajo de 1500 m y sin presencia de cumulonimbus.

METAR: LIRN 280850Z 04010KT CAVOK 13/01 Q1021 NOSIG

Hora: 11:23 (09:23 UTC)

Pronóstico

El informe se hizo hace 4 horas y 23 minutos, a las 05:00 UTC
Pronóstico válido del 28 a las 06 UTC al 29 a las 06 UTC
Viento 16 kt del noreste
Visibilidad 10 km o más
Nubes dispersas a una altura de 2000 ft
Evolucionando progresivamente
del 28 a las 15 UTC al 28 a las 17 UTC
Viento 6 kt del noreste

TAF: LIRN 280500Z 2806/2906 04016KT 9999 SCT020 BECMG 2815/2817 04006KT

Observaciones y pronósticos meteorológicos de más de 4000 aeropuertos (mensajes METAR y TAF).

Los puntos amarillos y rojos representan las estaciones disponibles.

Ponga el ratón en el punto deseado para ver el nombre de la estación.

Haga clic para ver las observaciones y los pronósticos meteorológicos.

Para cambiar el mapa : haga clic en los botones verdes con una cruz de color negro para hacer un zoom, en el botón verde con un guión para alejar o en las flechas verdes para mapas adyacentes.


METAR-TAF: